sensor_id;sensor_type;location;lat;lon;timestamp;P1;durP1;ratioP1;P2;durP2;ratioP2
10582;SDS011;33679;51.218;6.786;2023-01-24T00:00:49;9.60;;;7.60;;
10582;SDS011;33679;51.218;6.786;2023-01-24T00:03:25;13.60;;;8.13;;
10582;SDS011;33679;51.218;6.786;2023-01-24T00:06:00;11.63;;;6.80;;
10582;SDS011;33679;51.218;6.786;2023-01-24T00:08:35;14.90;;;9.10;;
10582;SDS011;33679;51.218;6.786;2023-01-24T00:11:09;13.10;;;8.33;;
10582;SDS011;33679;51.218;6.786;2023-01-24T00:13:43;14.50;;;8.30;;
10582;SDS011;33679;51.218;6.786;2023-01-24T00:16:16;13.20;;;7.50;;
10582;SDS011;33679;51.218;6.786;2023-01-24T00:18:51;11.53;;;7.03;;
10582;SDS011;33679;51.218;6.786;2023-01-24T00:24:30;12.70;;;7.93;;
10582;SDS011;33679;51.218;6.786;2023-01-24T00:27:03;11.77;;;7.53;;
10582;SDS011;33679;51.218;6.786;2023-01-24T00:29:36;14.20;;;7.30;;
10582;SDS011;33679;51.218;6.786;2023-01-24T00:32:09;11.57;;;7.90;;
10582;SDS011;33679;51.218;6.786;2023-01-24T00:34:44;13.07;;;7.40;;
10582;SDS011;33679;51.218;6.786;2023-01-24T00:37:17;10.63;;;7.63;;
10582;SDS011;33679;51.218;6.786;2023-01-24T00:39:54;10.70;;;7.00;;
10582;SDS011;33679;51.218;6.786;2023-01-24T00:42:28;13.17;;;7.77;;
10582;SDS011;33679;51.218;6.786;2023-01-24T00:45:00;11.53;;;7.20;;
10582;SDS011;33679;51.218;6.786;2023-01-24T00:47:37;12.80;;;7.87;;
10582;SDS011;33679;51.218;6.786;2023-01-24T00:50:13;13.37;;;7.93;;
10582;SDS011;33679;51.218;6.786;2023-01-24T00:52:47;12.00;;;7.93;;
10582;SDS011;33679;51.218;6.786;2023-01-24T00:55:23;9.27;;;6.53;;
10582;SDS011;33679;51.218;6.786;2023-01-24T00:57:55;12.10;;;7.53;;
10582;SDS011;33679;51.218;6.786;2023-01-24T01:00:30;16.63;;;7.50;;
10582;SDS011;33679;51.218;6.786;2023-01-24T01:03:04;10.77;;;6.27;;
10582;SDS011;33679;51.218;6.786;2023-01-24T01:05:38;11.80;;;6.60;;
10582;SDS011;33679;51.218;6.786;2023-01-24T01:08:11;10.80;;;6.87;;
10582;SDS011;33679;51.218;6.786;2023-01-24T01:10:45;10.13;;;7.20;;
10582;SDS011;33679;51.218;6.786;2023-01-24T01:13:17;11.83;;;6.77;;
10582;SDS011;33679;51.218;6.786;2023-01-24T01:15:50;11.30;;;6.83;;
10582;SDS011;33679;51.218;6.786;2023-01-24T01:18:22;9.03;;;6.50;;
10582;SDS011;33679;51.218;6.786;2023-01-24T01:21:05;11.90;;;6.80;;
10582;SDS011;33679;51.218;6.786;2023-01-24T01:23:38;12.30;;;7.20;;
10582;SDS011;33679;51.218;6.786;2023-01-24T01:26:13;8.90;;;6.40;;
10582;SDS011;33679;51.218;6.786;2023-01-24T01:28:49;10.90;;;6.03;;
10582;SDS011;33679;51.218;6.786;2023-01-24T01:31:23;10.03;;;7.30;;
10582;SDS011;33679;51.218;6.786;2023-01-24T01:33:55;8.83;;;6.57;;
10582;SDS011;33679;51.218;6.786;2023-01-24T01:36:28;10.63;;;6.60;;
10582;SDS011;33679;51.218;6.786;2023-01-24T01:39:02;10.30;;;6.53;;
10582;SDS011;33679;51.218;6.786;2023-01-24T01:41:36;9.03;;;6.00;;
10582;SDS011;33679;51.218;6.786;2023-01-24T01:44:19;9.30;;;5.83;;
10582;SDS011;33679;51.218;6.786;2023-01-24T01:47:21;10.37;;;6.73;;
10582;SDS011;33679;51.218;6.786;2023-01-24T01:50:02;13.47;;;6.57;;
10582;SDS011;33679;51.218;6.786;2023-01-24T01:52:37;7.80;;;5.50;;
10582;SDS011;33679;51.218;6.786;2023-01-24T01:55:14;9.30;;;6.43;;
10582;SDS011;33679;51.218;6.786;2023-01-24T01:57:49;10.80;;;6.40;;
10582;SDS011;33679;51.218;6.786;2023-01-24T02:00:25;9.57;;;6.53;;
10582;SDS011;33679;51.218;6.786;2023-01-24T02:02:59;7.67;;;5.87;;
10582;SDS011;33679;51.218;6.786;2023-01-24T02:05:48;9.47;;;6.40;;
10582;SDS011;33679;51.218;6.786;2023-01-24T02:08:23;10.50;;;5.73;;
10582;SDS011;33679;51.218;6.786;2023-01-24T02:10:56;9.37;;;5.90;;
10582;SDS011;33679;51.218;6.786;2023-01-24T02:13:49;7.60;;;5.33;;
10582;SDS011;33679;51.218;6.786;2023-01-24T02:16:44;7.10;;;5.10;;
10582;SDS011;33679;51.218;6.786;2023-01-24T02:19:18;9.67;;;5.57;;
10582;SDS011;33679;51.218;6.786;2023-01-24T02:22:12;10.03;;;5.40;;
10582;SDS011;33679;51.218;6.786;2023-01-24T02:24:51;8.40;;;5.90;;
10582;SDS011;33679;51.218;6.786;2023-01-24T02:27:32;8.90;;;5.87;;
10582;SDS011;33679;51.218;6.786;2023-01-24T02:30:06;9.53;;;5.50;;
10582;SDS011;33679;51.218;6.786;2023-01-24T02:32:39;9.90;;;6.07;;
10582;SDS011;33679;51.218;6.786;2023-01-24T02:35:22;8.50;;;5.70;;
10582;SDS011;33679;51.218;6.786;2023-01-24T02:37:59;8.10;;;5.97;;
10582;SDS011;33679;51.218;6.786;2023-01-24T02:40:35;6.90;;;5.10;;
10582;SDS011;33679;51.218;6.786;2023-01-24T02:43:09;10.73;;;5.90;;
10582;SDS011;33679;51.218;6.786;2023-01-24T02:45:44;5.97;;;4.57;;
10582;SDS011;33679;51.218;6.786;2023-01-24T02:48:17;8.83;;;5.73;;
10582;SDS011;33679;51.218;6.786;2023-01-24T02:50:49;10.00;;;5.63;;
10582;SDS011;33679;51.218;6.786;2023-01-24T02:53:40;6.73;;;5.00;;
10582;SDS011;33679;51.218;6.786;2023-01-24T02:56:12;7.03;;;4.60;;
10582;SDS011;33679;51.218;6.786;2023-01-24T02:59:05;7.73;;;4.77;;
10582;SDS011;33679;51.218;6.786;2023-01-24T03:01:39;6.87;;;5.07;;
10582;SDS011;33679;51.218;6.786;2023-01-24T03:04:12;9.10;;;5.43;;
10582;SDS011;33679;51.218;6.786;2023-01-24T03:06:46;5.40;;;4.10;;
10582;SDS011;33679;51.218;6.786;2023-01-24T03:09:20;9.73;;;5.40;;
10582;SDS011;33679;51.218;6.786;2023-01-24T03:12:05;7.10;;;4.47;;
10582;SDS011;33679;51.218;6.786;2023-01-24T03:15:01;5.40;;;4.20;;
10582;SDS011;33679;51.218;6.786;2023-01-24T03:17:51;7.00;;;5.10;;
10582;SDS011;33679;51.218;6.786;2023-01-24T03:20:41;6.77;;;4.23;;
10582;SDS011;33679;51.218;6.786;2023-01-24T03:23:35;8.97;;;4.03;;
10582;SDS011;33679;51.218;6.786;2023-01-24T03:26:26;6.40;;;3.50;;
10582;SDS011;33679;51.218;6.786;2023-01-24T03:29:19;4.90;;;3.70;;
10582;SDS011;33679;51.218;6.786;2023-01-24T03:32:11;5.57;;;4.40;;
10582;SDS011;33679;51.218;6.786;2023-01-24T03:35:01;8.23;;;5.00;;
10582;SDS011;33679;51.218;6.786;2023-01-24T03:37:36;5.57;;;4.63;;
10582;SDS011;33679;51.218;6.786;2023-01-24T03:40:28;6.20;;;4.20;;
10582;SDS011;33679;51.218;6.786;2023-01-24T03:43:01;5.50;;;3.93;;
10582;SDS011;33679;51.218;6.786;2023-01-24T03:45:39;5.47;;;3.53;;
10582;SDS011;33679;51.218;6.786;2023-01-24T03:48:24;5.40;;;4.00;;
10582;SDS011;33679;51.218;6.786;2023-01-24T03:51:05;7.00;;;4.50;;
10582;SDS011;33679;51.218;6.786;2023-01-24T03:53:55;5.77;;;4.20;;
10582;SDS011;33679;51.218;6.786;2023-01-24T03:56:33;5.53;;;4.40;;
10582;SDS011;33679;51.218;6.786;2023-01-24T03:59:06;6.63;;;4.60;;
10582;SDS011;33679;51.218;6.786;2023-01-24T04:01:41;6.73;;;3.70;;
10582;SDS011;33679;51.218;6.786;2023-01-24T04:04:25;8.53;;;4.10;;
10582;SDS011;33679;51.218;6.786;2023-01-24T04:07:19;5.40;;;3.53;;
10582;SDS011;33679;51.218;6.786;2023-01-24T04:09:51;5.63;;;3.80;;
10582;SDS011;33679;51.218;6.786;2023-01-24T04:12:24;6.67;;;3.67;;
10582;SDS011;33679;51.218;6.786;2023-01-24T04:14:58;5.13;;;3.27;;
10582;SDS011;33679;51.218;6.786;2023-01-24T04:17:33;4.27;;;3.67;;
10582;SDS011;33679;51.218;6.786;2023-01-24T04:20:12;5.33;;;4.30;;
10582;SDS011;33679;51.218;6.786;2023-01-24T04:22:45;5.57;;;4.07;;
10582;SDS011;33679;51.218;6.786;2023-01-24T04:25:18;5.90;;;3.80;;
10582;SDS011;33679;51.218;6.786;2023-01-24T04:27:51;5.53;;;4.20;;
10582;SDS011;33679;51.218;6.786;2023-01-24T04:30:27;5.60;;;4.03;;
10582;SDS011;33679;51.218;6.786;2023-01-24T04:33:02;5.10;;;3.50;;
10582;SDS011;33679;51.218;6.786;2023-01-24T04:35:36;4.57;;;3.60;;
10582;SDS011;33679;51.218;6.786;2023-01-24T04:38:09;4.43;;;3.30;;
10582;SDS011;33679;51.218;6.786;2023-01-24T04:40:58;5.77;;;3.57;;
10582;SDS011;33679;51.218;6.786;2023-01-24T04:43:38;5.17;;;4.23;;
10582;SDS011;33679;51.218;6.786;2023-01-24T04:46:11;6.13;;;3.80;;
10582;SDS011;33679;51.218;6.786;2023-01-24T04:48:58;6.80;;;4.57;;
10582;SDS011;33679;51.218;6.786;2023-01-24T04:51:43;6.73;;;4.20;;
10582;SDS011;33679;51.218;6.786;2023-01-24T04:54:23;6.23;;;3.93;;
10582;SDS011;33679;51.218;6.786;2023-01-24T04:56:58;4.23;;;3.10;;
10582;SDS011;33679;51.218;6.786;2023-01-24T04:59:32;6.83;;;3.77;;
10582;SDS011;33679;51.218;6.786;2023-01-24T05:02:07;6.27;;;4.10;;
10582;SDS011;33679;51.218;6.786;2023-01-24T05:04:45;6.07;;;4.30;;
10582;SDS011;33679;51.218;6.786;2023-01-24T05:07:19;5.50;;;3.50;;
10582;SDS011;33679;51.218;6.786;2023-01-24T05:09:59;4.63;;;3.60;;
10582;SDS011;33679;51.218;6.786;2023-01-24T05:12:32;6.00;;;3.87;;
10582;SDS011;33679;51.218;6.786;2023-01-24T05:15:10;6.43;;;4.20;;
10582;SDS011;33679;51.218;6.786;2023-01-24T05:17:43;4.67;;;3.83;;
10582;SDS011;33679;51.218;6.786;2023-01-24T05:20:19;4.80;;;3.57;;
10582;SDS011;33679;51.218;6.786;2023-01-24T05:22:56;4.53;;;3.30;;
10582;SDS011;33679;51.218;6.786;2023-01-24T05:25:31;5.47;;;4.07;;
10582;SDS011;33679;51.218;6.786;2023-01-24T05:28:04;6.40;;;4.30;;
10582;SDS011;33679;51.218;6.786;2023-01-24T05:34:09;6.83;;;4.03;;
10582;SDS011;33679;51.218;6.786;2023-01-24T05:36:43;7.77;;;4.50;;
10582;SDS011;33679;51.218;6.786;2023-01-24T05:39:18;6.67;;;4.60;;
10582;SDS011;33679;51.218;6.786;2023-01-24T05:41:57;10.43;;;4.63;;
10582;SDS011;33679;51.218;6.786;2023-01-24T05:44:37;5.00;;;4.03;;
10582;SDS011;33679;51.218;6.786;2023-01-24T05:47:11;5.87;;;4.23;;
10582;SDS011;33679;51.218;6.786;2023-01-24T05:49:46;6.47;;;4.30;;
10582;SDS011;33679;51.218;6.786;2023-01-24T05:52:19;6.13;;;4.80;;
10582;SDS011;33679;51.218;6.786;2023-01-24T05:54:58;5.43;;;4.93;;
10582;SDS011;33679;51.218;6.786;2023-01-24T05:57:38;5.77;;;3.80;;
10582;SDS011;33679;51.218;6.786;2023-01-24T06:00:14;7.43;;;4.53;;
10582;SDS011;33679;51.218;6.786;2023-01-24T06:03:07;6.67;;;4.77;;
10582;SDS011;33679;51.218;6.786;2023-01-24T06:05:44;6.67;;;4.57;;
10582;SDS011;33679;51.218;6.786;2023-01-24T06:08:21;6.23;;;4.53;;
10582;SDS011;33679;51.218;6.786;2023-01-24T06:11:00;6.80;;;4.97;;
10582;SDS011;33679;51.218;6.786;2023-01-24T06:16:35;5.97;;;4.17;;
10582;SDS011;33679;51.218;6.786;2023-01-24T06:19:14;8.70;;;6.10;;
10582;SDS011;33679;51.218;6.786;2023-01-24T06:21:47;6.63;;;4.70;;
10582;SDS011;33679;51.218;6.786;2023-01-24T06:24:27;7.00;;;5.10;;
10582;SDS011;33679;51.218;6.786;2023-01-24T06:27:25;8.03;;;4.93;;
10582;SDS011;33679;51.218;6.786;2023-01-24T06:29:59;9.93;;;5.90;;
10582;SDS011;33679;51.218;6.786;2023-01-24T06:32:34;8.73;;;5.20;;
10582;SDS011;33679;51.218;6.786;2023-01-24T06:35:18;8.77;;;5.20;;
10582;SDS011;33679;51.218;6.786;2023-01-24T06:37:57;8.60;;;4.93;;
10582;SDS011;33679;51.218;6.786;2023-01-24T06:40:30;9.47;;;5.53;;
10582;SDS011;33679;51.218;6.786;2023-01-24T06:43:05;5.47;;;4.23;;
10582;SDS011;33679;51.218;6.786;2023-01-24T06:45:39;7.73;;;4.73;;
10582;SDS011;33679;51.218;6.786;2023-01-24T06:48:11;8.27;;;5.60;;
10582;SDS011;33679;51.218;6.786;2023-01-24T06:50:44;5.60;;;4.20;;
10582;SDS011;33679;51.218;6.786;2023-01-24T06:53:19;8.40;;;4.80;;
10582;SDS011;33679;51.218;6.786;2023-01-24T06:55:51;5.93;;;4.10;;
10582;SDS011;33679;51.218;6.786;2023-01-24T06:58:26;8.47;;;5.03;;
10582;SDS011;33679;51.218;6.786;2023-01-24T07:00:58;10.73;;;5.27;;
10582;SDS011;33679;51.218;6.786;2023-01-24T07:03:33;9.33;;;5.33;;
10582;SDS011;33679;51.218;6.786;2023-01-24T07:06:05;8.23;;;5.40;;
10582;SDS011;33679;51.218;6.786;2023-01-24T07:08:38;6.83;;;4.67;;
10582;SDS011;33679;51.218;6.786;2023-01-24T07:11:11;7.43;;;5.87;;
10582;SDS011;33679;51.218;6.786;2023-01-24T07:13:45;8.87;;;5.30;;
10582;SDS011;33679;51.218;6.786;2023-01-24T07:16:18;13.70;;;5.60;;
10582;SDS011;33679;51.218;6.786;2023-01-24T07:18:51;7.80;;;5.57;;
10582;SDS011;33679;51.218;6.786;2023-01-24T07:21:25;8.10;;;5.90;;
10582;SDS011;33679;51.218;6.786;2023-01-24T07:24:00;7.63;;;5.40;;
10582;SDS011;33679;51.218;6.786;2023-01-24T07:26:33;11.00;;;5.70;;
10582;SDS011;33679;51.218;6.786;2023-01-24T07:29:08;7.87;;;6.03;;
10582;SDS011;33679;51.218;6.786;2023-01-24T07:31:42;8.77;;;5.50;;
10582;SDS011;33679;51.218;6.786;2023-01-24T07:34:16;8.17;;;5.03;;
10582;SDS011;33679;51.218;6.786;2023-01-24T07:36:49;11.23;;;5.73;;
10582;SDS011;33679;51.218;6.786;2023-01-24T07:39:23;8.27;;;5.33;;
10582;SDS011;33679;51.218;6.786;2023-01-24T07:41:55;8.87;;;5.80;;
10582;SDS011;33679;51.218;6.786;2023-01-24T07:44:29;7.00;;;4.90;;
10582;SDS011;33679;51.218;6.786;2023-01-24T07:47:01;8.37;;;5.73;;
10582;SDS011;33679;51.218;6.786;2023-01-24T07:49:35;9.50;;;5.97;;
10582;SDS011;33679;51.218;6.786;2023-01-24T07:52:07;8.50;;;6.20;;
10582;SDS011;33679;51.218;6.786;2023-01-24T07:54:40;7.47;;;5.10;;
10582;SDS011;33679;51.218;6.786;2023-01-24T07:57:12;9.00;;;5.83;;
10582;SDS011;33679;51.218;6.786;2023-01-24T07:59:48;14.27;;;8.03;;
10582;SDS011;33679;51.218;6.786;2023-01-24T08:02:21;10.63;;;6.33;;
10582;SDS011;33679;51.218;6.786;2023-01-24T08:04:54;8.50;;;5.57;;
10582;SDS011;33679;51.218;6.786;2023-01-24T08:07:26;10.40;;;6.57;;
10582;SDS011;33679;51.218;6.786;2023-01-24T08:09:59;8.90;;;6.00;;
10582;SDS011;33679;51.218;6.786;2023-01-24T08:12:32;7.93;;;5.60;;
10582;SDS011;33679;51.218;6.786;2023-01-24T08:15:07;9.07;;;5.80;;
10582;SDS011;33679;51.218;6.786;2023-01-24T08:17:46;9.97;;;6.17;;
10582;SDS011;33679;51.218;6.786;2023-01-24T08:20:19;10.73;;;5.50;;
10582;SDS011;33679;51.218;6.786;2023-01-24T08:22:53;9.63;;;6.07;;
10582;SDS011;33679;51.218;6.786;2023-01-24T08:25:27;11.50;;;5.60;;
10582;SDS011;33679;51.218;6.786;2023-01-24T08:28:02;8.83;;;6.20;;
10582;SDS011;33679;51.218;6.786;2023-01-24T08:30:36;10.50;;;6.40;;
10582;SDS011;33679;51.218;6.786;2023-01-24T08:33:12;9.10;;;5.23;;
10582;SDS011;33679;51.218;6.786;2023-01-24T08:35:49;8.60;;;6.23;;
10582;SDS011;33679;51.218;6.786;2023-01-24T08:38:22;10.80;;;7.57;;
10582;SDS011;33679;51.218;6.786;2023-01-24T08:40:55;11.70;;;6.33;;
10582;SDS011;33679;51.218;6.786;2023-01-24T08:43:28;12.00;;;6.40;;
10582;SDS011;33679;51.218;6.786;2023-01-24T08:46:03;9.60;;;6.93;;
10582;SDS011;33679;51.218;6.786;2023-01-24T08:48:35;11.57;;;6.83;;
10582;SDS011;33679;51.218;6.786;2023-01-24T08:51:08;9.30;;;6.77;;
10582;SDS011;33679;51.218;6.786;2023-01-24T08:53:41;8.53;;;5.43;;
10582;SDS011;33679;51.218;6.786;2023-01-24T08:56:13;10.20;;;6.90;;
10582;SDS011;33679;51.218;6.786;2023-01-24T08:58:46;12.30;;;6.90;;
10582;SDS011;33679;51.218;6.786;2023-01-24T09:01:20;11.20;;;7.07;;
10582;SDS011;33679;51.218;6.786;2023-01-24T09:03:52;9.70;;;6.47;;
10582;SDS011;33679;51.218;6.786;2023-01-24T09:06:27;9.67;;;5.90;;
10582;SDS011;33679;51.218;6.786;2023-01-24T09:08:59;12.17;;;7.30;;
10582;SDS011;33679;51.218;6.786;2023-01-24T09:11:34;11.67;;;7.23;;
10582;SDS011;33679;51.218;6.786;2023-01-24T09:14:07;11.90;;;6.90;;
10582;SDS011;33679;51.218;6.786;2023-01-24T09:16:41;15.83;;;10.10;;
10582;SDS011;33679;51.218;6.786;2023-01-24T09:19:14;11.93;;;7.77;;
10582;SDS011;33679;51.218;6.786;2023-01-24T09:21:46;23.03;;;12.87;;
10582;SDS011;33679;51.218;6.786;2023-01-24T09:24:22;15.13;;;8.43;;
10582;SDS011;33679;51.218;6.786;2023-01-24T09:26:55;12.83;;;8.20;;
10582;SDS011;33679;51.218;6.786;2023-01-24T09:29:27;15.50;;;8.73;;
10582;SDS011;33679;51.218;6.786;2023-01-24T09:32:01;9.90;;;7.03;;
10582;SDS011;33679;51.218;6.786;2023-01-24T09:34:34;9.77;;;6.60;;
10582;SDS011;33679;51.218;6.786;2023-01-24T09:37:06;9.93;;;6.57;;
10582;SDS011;33679;51.218;6.786;2023-01-24T09:39:40;11.93;;;7.30;;
10582;SDS011;33679;51.218;6.786;2023-01-24T09:42:12;10.90;;;7.10;;
10582;SDS011;33679;51.218;6.786;2023-01-24T09:44:57;12.40;;;7.07;;
10582;SDS011;33679;51.218;6.786;2023-01-24T09:47:45;11.30;;;6.83;;
10582;SDS011;33679;51.218;6.786;2023-01-24T09:50:23;16.77;;;7.97;;
10582;SDS011;33679;51.218;6.786;2023-01-24T09:53:01;10.50;;;5.63;;
10582;SDS011;33679;51.218;6.786;2023-01-24T09:55:36;13.97;;;6.87;;
10582;SDS011;33679;51.218;6.786;2023-01-24T09:58:25;10.70;;;7.20;;
10582;SDS011;33679;51.218;6.786;2023-01-24T10:01:03;11.50;;;6.77;;
10582;SDS011;33679;51.218;6.786;2023-01-24T10:03:57;7.77;;;5.97;;
10582;SDS011;33679;51.218;6.786;2023-01-24T10:06:36;11.27;;;6.97;;
10582;SDS011;33679;51.218;6.786;2023-01-24T10:09:19;11.13;;;7.47;;
10582;SDS011;33679;51.218;6.786;2023-01-24T10:12:22;15.37;;;8.63;;
10582;SDS011;33679;51.218;6.786;2023-01-24T10:15:28;10.80;;;6.37;;
10582;SDS011;33679;51.218;6.786;2023-01-24T10:18:21;9.40;;;5.93;;
10582;SDS011;33679;51.218;6.786;2023-01-24T10:24:20;10.70;;;5.80;;
10582;SDS011;33679;51.218;6.786;2023-01-24T10:27:03;8.77;;;5.83;;
10582;SDS011;33679;51.218;6.786;2023-01-24T10:29:50;10.50;;;6.17;;
10582;SDS011;33679;51.218;6.786;2023-01-24T10:32:31;9.63;;;6.30;;
10582;SDS011;33679;51.218;6.786;2023-01-24T10:35:15;10.33;;;6.50;;
10582;SDS011;33679;51.218;6.786;2023-01-24T10:38:09;12.27;;;7.10;;
10582;SDS011;33679;51.218;6.786;2023-01-24T10:40:50;8.37;;;6.13;;
10582;SDS011;33679;51.218;6.786;2023-01-24T10:43:29;9.40;;;6.43;;
10582;SDS011;33679;51.218;6.786;2023-01-24T10:46:11;10.40;;;6.73;;
10582;SDS011;33679;51.218;6.786;2023-01-24T10:49:00;9.43;;;6.53;;
10582;SDS011;33679;51.218;6.786;2023-01-24T10:51:36;13.23;;;8.20;;
10582;SDS011;33679;51.218;6.786;2023-01-24T10:54:17;13.10;;;7.90;;
10582;SDS011;33679;51.218;6.786;2023-01-24T10:56:54;10.50;;;6.40;;
10582;SDS011;33679;51.218;6.786;2023-01-24T10:59:28;11.73;;;6.80;;
10582;SDS011;33679;51.218;6.786;2023-01-24T11:02:00;8.50;;;5.93;;
10582;SDS011;33679;51.218;6.786;2023-01-24T11:04:33;10.40;;;6.43;;
10582;SDS011;33679;51.218;6.786;2023-01-24T11:07:06;9.43;;;6.20;;
10582;SDS011;33679;51.218;6.786;2023-01-24T11:09:39;8.30;;;5.63;;
10582;SDS011;33679;51.218;6.786;2023-01-24T11:12:13;10.13;;;6.30;;
10582;SDS011;33679;51.218;6.786;2023-01-24T11:14:46;10.33;;;6.40;;
10582;SDS011;33679;51.218;6.786;2023-01-24T11:17:31;13.80;;;7.80;;
10582;SDS011;33679;51.218;6.786;2023-01-24T11:20:16;9.63;;;6.37;;
10582;SDS011;33679;51.218;6.786;2023-01-24T11:23:04;14.67;;;7.97;;
10582;SDS011;33679;51.218;6.786;2023-01-24T11:25:50;10.93;;;7.17;;
10582;SDS011;33679;51.218;6.786;2023-01-24T11:28:26;12.80;;;7.97;;
10582;SDS011;33679;51.218;6.786;2023-01-24T11:31:02;10.10;;;6.93;;
10582;SDS011;33679;51.218;6.786;2023-01-24T11:33:41;11.87;;;6.97;;
10582;SDS011;33679;51.218;6.786;2023-01-24T11:36:27;10.23;;;6.47;;
10582;SDS011;33679;51.218;6.786;2023-01-24T11:39:10;7.53;;;5.77;;
10582;SDS011;33679;51.218;6.786;2023-01-24T11:41:50;7.90;;;5.30;;
10582;SDS011;33679;51.218;6.786;2023-01-24T11:47:33;10.43;;;6.60;;
10582;SDS011;33679;51.218;6.786;2023-01-24T11:50:20;10.20;;;6.00;;
10582;SDS011;33679;51.218;6.786;2023-01-24T11:56:05;8.30;;;5.40;;
10582;SDS011;33679;51.218;6.786;2023-01-24T11:58:47;12.27;;;6.40;;
10582;SDS011;33679;51.218;6.786;2023-01-24T12:01:39;8.93;;;6.07;;
10582;SDS011;33679;51.218;6.786;2023-01-24T12:07:32;10.00;;;6.13;;
10582;SDS011;33679;51.218;6.786;2023-01-24T12:10:17;13.43;;;7.20;;
10582;SDS011;33679;51.218;6.786;2023-01-24T12:13:00;14.10;;;7.47;;
10582;SDS011;33679;51.218;6.786;2023-01-24T12:15:43;12.63;;;6.30;;
10582;SDS011;33679;51.218;6.786;2023-01-24T12:18:33;10.30;;;6.77;;
10582;SDS011;33679;51.218;6.786;2023-01-24T12:21:15;10.50;;;6.40;;
10582;SDS011;33679;51.218;6.786;2023-01-24T12:23:49;10.77;;;6.33;;
10582;SDS011;33679;51.218;6.786;2023-01-24T12:26:27;10.13;;;6.80;;
10582;SDS011;33679;51.218;6.786;2023-01-24T12:29:02;9.13;;;6.10;;
10582;SDS011;33679;51.218;6.786;2023-01-24T12:31:47;12.73;;;8.10;;
10582;SDS011;33679;51.218;6.786;2023-01-24T12:34:29;11.33;;;7.60;;
10582;SDS011;33679;51.218;6.786;2023-01-24T12:37:13;10.20;;;7.10;;
10582;SDS011;33679;51.218;6.786;2023-01-24T12:39:54;10.83;;;6.43;;
10582;SDS011;33679;51.218;6.786;2023-01-24T12:42:38;9.67;;;6.27;;
10582;SDS011;33679;51.218;6.786;2023-01-24T12:45:20;13.13;;;7.13;;
10582;SDS011;33679;51.218;6.786;2023-01-24T12:47:57;10.50;;;7.10;;
10582;SDS011;33679;51.218;6.786;2023-01-24T12:50:40;8.87;;;6.00;;
10582;SDS011;33679;51.218;6.786;2023-01-24T12:53:19;13.43;;;7.50;;
10582;SDS011;33679;51.218;6.786;2023-01-24T12:55:57;13.20;;;7.07;;
10582;SDS011;33679;51.218;6.786;2023-01-24T12:58:36;9.30;;;6.50;;
10582;SDS011;33679;51.218;6.786;2023-01-24T13:01:21;7.83;;;6.53;;
10582;SDS011;33679;51.218;6.786;2023-01-24T13:04:13;9.63;;;6.37;;
10582;SDS011;33679;51.218;6.786;2023-01-24T13:06:59;10.07;;;6.40;;
10582;SDS011;33679;51.218;6.786;2023-01-24T13:09:40;11.33;;;6.40;;
10582;SDS011;33679;51.218;6.786;2023-01-24T13:12:27;9.20;;;6.60;;
10582;SDS011;33679;51.218;6.786;2023-01-24T13:15:17;8.97;;;6.53;;
10582;SDS011;33679;51.218;6.786;2023-01-24T13:18:03;21.03;;;7.47;;
10582;SDS011;33679;51.218;6.786;2023-01-24T13:20:59;10.40;;;6.97;;
10582;SDS011;33679;51.218;6.786;2023-01-24T13:23:49;10.47;;;6.47;;
10582;SDS011;33679;51.218;6.786;2023-01-24T13:30:02;9.77;;;6.60;;
10582;SDS011;33679;51.218;6.786;2023-01-24T13:32:57;11.03;;;6.73;;
10582;SDS011;33679;51.218;6.786;2023-01-24T13:35:32;9.10;;;6.50;;
10582;SDS011;33679;51.218;6.786;2023-01-24T13:38:06;9.17;;;6.63;;
10582;SDS011;33679;51.218;6.786;2023-01-24T13:40:57;11.60;;;7.17;;
10582;SDS011;33679;51.218;6.786;2023-01-24T13:49:44;11.17;;;6.50;;
10582;SDS011;33679;51.218;6.786;2023-01-24T13:52:35;9.87;;;6.60;;
10582;SDS011;33679;51.218;6.786;2023-01-24T13:58:32;9.53;;;6.27;;
10582;SDS011;33679;51.218;6.786;2023-01-24T14:01:14;9.17;;;5.60;;
10582;SDS011;33679;51.218;6.786;2023-01-24T14:03:52;9.20;;;6.63;;
10582;SDS011;33679;51.218;6.786;2023-01-24T14:06:38;15.73;;;8.37;;
10582;SDS011;33679;51.218;6.786;2023-01-24T14:09:13;14.30;;;8.30;;
10582;SDS011;33679;51.218;6.786;2023-01-24T14:11:57;10.80;;;6.43;;
10582;SDS011;33679;51.218;6.786;2023-01-24T14:14:37;11.77;;;6.97;;
10582;SDS011;33679;51.218;6.786;2023-01-24T14:17:46;9.20;;;6.50;;
10582;SDS011;33679;51.218;6.786;2023-01-24T14:20:23;12.10;;;7.70;;
10582;SDS011;33679;51.218;6.786;2023-01-24T14:23:11;8.43;;;6.60;;
10582;SDS011;33679;51.218;6.786;2023-01-24T14:25:51;11.10;;;7.60;;
10582;SDS011;33679;51.218;6.786;2023-01-24T14:28:28;10.80;;;6.80;;
10582;SDS011;33679;51.218;6.786;2023-01-24T14:31:12;11.90;;;8.03;;
10582;SDS011;33679;51.218;6.786;2023-01-24T14:34:04;10.80;;;7.40;;
10582;SDS011;33679;51.218;6.786;2023-01-24T14:36:44;14.57;;;7.17;;
10582;SDS011;33679;51.218;6.786;2023-01-24T14:39:22;10.53;;;6.73;;
10582;SDS011;33679;51.218;6.786;2023-01-24T14:41:56;9.70;;;6.47;;
10582;SDS011;33679;51.218;6.786;2023-01-24T14:44:31;8.23;;;5.97;;
10582;SDS011;33679;51.218;6.786;2023-01-24T14:47:13;9.23;;;6.97;;
10582;SDS011;33679;51.218;6.786;2023-01-24T14:49:56;12.37;;;7.53;;
10582;SDS011;33679;51.218;6.786;2023-01-24T14:52:30;9.73;;;6.60;;
10582;SDS011;33679;51.218;6.786;2023-01-24T14:55:14;10.80;;;7.00;;
10582;SDS011;33679;51.218;6.786;2023-01-24T14:58:14;9.80;;;6.53;;
10582;SDS011;33679;51.218;6.786;2023-01-24T15:00:52;8.67;;;6.53;;
10582;SDS011;33679;51.218;6.786;2023-01-24T15:03:31;8.80;;;5.70;;
10582;SDS011;33679;51.218;6.786;2023-01-24T15:06:14;10.63;;;6.47;;
10582;SDS011;33679;51.218;6.786;2023-01-24T15:08:52;9.53;;;6.57;;
10582;SDS011;33679;51.218;6.786;2023-01-24T15:11:32;12.20;;;8.03;;
10582;SDS011;33679;51.218;6.786;2023-01-24T15:14:16;10.20;;;6.70;;
10582;SDS011;33679;51.218;6.786;2023-01-24T15:16:51;9.77;;;6.87;;
10582;SDS011;33679;51.218;6.786;2023-01-24T15:19:28;10.50;;;7.50;;
10582;SDS011;33679;51.218;6.786;2023-01-24T15:22:03;10.97;;;7.00;;
10582;SDS011;33679;51.218;6.786;2023-01-24T15:24:36;10.30;;;7.20;;
10582;SDS011;33679;51.218;6.786;2023-01-24T15:27:19;12.50;;;7.43;;
10582;SDS011;33679;51.218;6.786;2023-01-24T15:30:06;11.33;;;7.50;;
10582;SDS011;33679;51.218;6.786;2023-01-24T15:32:43;11.73;;;7.10;;
10582;SDS011;33679;51.218;6.786;2023-01-24T15:35:31;10.23;;;7.07;;
10582;SDS011;33679;51.218;6.786;2023-01-24T15:38:10;13.53;;;8.23;;
10582;SDS011;33679;51.218;6.786;2023-01-24T15:46:37;15.13;;;9.73;;
10582;SDS011;33679;51.218;6.786;2023-01-24T15:49:30;11.50;;;7.37;;
10582;SDS011;33679;51.218;6.786;2023-01-24T15:52:14;13.17;;;7.93;;
10582;SDS011;33679;51.218;6.786;2023-01-24T15:54:53;12.53;;;7.80;;
10582;SDS011;33679;51.218;6.786;2023-01-24T15:57:30;12.50;;;8.47;;
10582;SDS011;33679;51.218;6.786;2023-01-24T16:00:21;17.27;;;9.50;;
10582;SDS011;33679;51.218;6.786;2023-01-24T16:02:56;14.23;;;8.90;;
10582;SDS011;33679;51.218;6.786;2023-01-24T16:05:29;16.67;;;8.40;;
10582;SDS011;33679;51.218;6.786;2023-01-24T16:08:03;14.07;;;8.10;;
10582;SDS011;33679;51.218;6.786;2023-01-24T16:10:36;10.97;;;7.30;;
10582;SDS011;33679;51.218;6.786;2023-01-24T16:13:12;13.43;;;7.37;;
10582;SDS011;33679;51.218;6.786;2023-01-24T16:15:55;22.43;;;8.13;;
10582;SDS011;33679;51.218;6.786;2023-01-24T16:18:29;12.40;;;7.90;;
10582;SDS011;33679;51.218;6.786;2023-01-24T16:21:04;15.80;;;9.60;;
10582;SDS011;33679;51.218;6.786;2023-01-24T16:23:39;20.83;;;10.97;;
10582;SDS011;33679;51.218;6.786;2023-01-24T16:26:16;14.10;;;8.30;;
10582;SDS011;33679;51.218;6.786;2023-01-24T16:28:52;14.27;;;8.20;;